sensor_id;sensor_type;location;lat;lon;timestamp;P1;durP1;ratioP1;P2;durP2;ratioP2
23088;SDS011;11713;48.506;8.966;2023-04-16T00:00:02;2.57;;;2.23;;
23088;SDS011;11713;48.506;8.966;2023-04-16T00:02:36;2.17;;;2.00;;
23088;SDS011;11713;48.506;8.966;2023-04-16T00:05:02;2.47;;;2.27;;
23088;SDS011;11713;48.506;8.966;2023-04-16T00:07:28;2.07;;;1.93;;
23088;SDS011;11713;48.506;8.966;2023-04-16T00:09:53;2.20;;;2.00;;
23088;SDS011;11713;48.506;8.966;2023-04-16T00:12:19;2.60;;;2.40;;
23088;SDS011;11713;48.506;8.966;2023-04-16T00:14:46;2.40;;;2.20;;
23088;SDS011;11713;48.506;8.966;2023-04-16T00:17:11;2.43;;;2.23;;
23088;SDS011;11713;48.506;8.966;2023-04-16T00:19:37;3.30;;;2.47;;
23088;SDS011;11713;48.506;8.966;2023-04-16T00:22:03;2.57;;;2.37;;
23088;SDS011;11713;48.506;8.966;2023-04-16T00:24:29;2.43;;;2.03;;
23088;SDS011;11713;48.506;8.966;2023-04-16T00:26:54;3.40;;;2.50;;
23088;SDS011;11713;48.506;8.966;2023-04-16T00:29:21;3.10;;;2.80;;
23088;SDS011;11713;48.506;8.966;2023-04-16T00:31:47;2.93;;;2.63;;
23088;SDS011;11713;48.506;8.966;2023-04-16T00:34:12;2.87;;;2.67;;
23088;SDS011;11713;48.506;8.966;2023-04-16T00:36:38;2.90;;;2.60;;
23088;SDS011;11713;48.506;8.966;2023-04-16T00:39:04;3.37;;;3.07;;
23088;SDS011;11713;48.506;8.966;2023-04-16T00:41:30;2.83;;;2.60;;
23088;SDS011;11713;48.506;8.966;2023-04-16T00:43:56;3.30;;;3.00;;
23088;SDS011;11713;48.506;8.966;2023-04-16T00:46:22;4.03;;;3.13;;
23088;SDS011;11713;48.506;8.966;2023-04-16T00:48:48;3.73;;;3.27;;
23088;SDS011;11713;48.506;8.966;2023-04-16T00:51:17;3.37;;;3.07;;
23088;SDS011;11713;48.506;8.966;2023-04-16T00:53:44;3.53;;;3.23;;
23088;SDS011;11713;48.506;8.966;2023-04-16T00:56:11;3.60;;;3.30;;
23088;SDS011;11713;48.506;8.966;2023-04-16T00:58:38;3.80;;;3.50;;
23088;SDS011;11713;48.506;8.966;2023-04-16T01:01:04;4.27;;;3.47;;
23088;SDS011;11713;48.506;8.966;2023-04-16T01:03:37;4.10;;;3.70;;
23088;SDS011;11713;48.506;8.966;2023-04-16T01:06:05;3.60;;;3.30;;
23088;SDS011;11713;48.506;8.966;2023-04-16T01:08:32;4.17;;;3.77;;
23088;SDS011;11713;48.506;8.966;2023-04-16T01:10:58;4.10;;;3.70;;
23088;SDS011;11713;48.506;8.966;2023-04-16T01:13:23;4.47;;;4.00;;
23088;SDS011;11713;48.506;8.966;2023-04-16T01:15:50;4.33;;;3.93;;
23088;SDS011;11713;48.506;8.966;2023-04-16T01:18:16;4.20;;;3.80;;
23088;SDS011;11713;48.506;8.966;2023-04-16T01:20:43;5.50;;;4.20;;
23088;SDS011;11713;48.506;8.966;2023-04-16T01:23:10;4.20;;;3.80;;
23088;SDS011;11713;48.506;8.966;2023-04-16T01:25:36;4.70;;;4.20;;
23088;SDS011;11713;48.506;8.966;2023-04-16T01:28:03;4.60;;;4.20;;
23088;SDS011;11713;48.506;8.966;2023-04-16T01:30:30;4.93;;;4.43;;
23088;SDS011;11713;48.506;8.966;2023-04-16T01:33:19;4.83;;;4.33;;
23088;SDS011;11713;48.506;8.966;2023-04-16T01:35:45;4.63;;;4.20;;
23088;SDS011;11713;48.506;8.966;2023-04-16T01:38:14;5.10;;;4.27;;
23088;SDS011;11713;48.506;8.966;2023-04-16T01:40:39;4.20;;;3.80;;
23088;SDS011;11713;48.506;8.966;2023-04-16T01:43:05;4.20;;;3.80;;
23088;SDS011;11713;48.506;8.966;2023-04-16T01:45:31;4.37;;;3.97;;
23088;SDS011;11713;48.506;8.966;2023-04-16T01:47:58;4.40;;;4.00;;
23088;SDS011;11713;48.506;8.966;2023-04-16T01:50:24;4.30;;;3.90;;
23088;SDS011;11713;48.506;8.966;2023-04-16T01:52:50;4.50;;;3.67;;
23088;SDS011;11713;48.506;8.966;2023-04-16T01:55:16;3.80;;;3.50;;
23088;SDS011;11713;48.506;8.966;2023-04-16T01:57:42;4.23;;;3.83;;
23088;SDS011;11713;48.506;8.966;2023-04-16T02:00:10;4.00;;;3.57;;
23088;SDS011;11713;48.506;8.966;2023-04-16T02:02:43;4.60;;;3.97;;
23088;SDS011;11713;48.506;8.966;2023-04-16T02:05:12;3.77;;;3.47;;
23088;SDS011;11713;48.506;8.966;2023-04-16T02:07:38;3.80;;;3.33;;
23088;SDS011;11713;48.506;8.966;2023-04-16T02:10:04;4.10;;;3.70;;
23088;SDS011;11713;48.506;8.966;2023-04-16T02:12:32;3.83;;;3.53;;
23088;SDS011;11713;48.506;8.966;2023-04-16T02:14:58;3.80;;;3.50;;
23088;SDS011;11713;48.506;8.966;2023-04-16T02:17:26;3.57;;;3.27;;
23088;SDS011;11713;48.506;8.966;2023-04-16T02:20:05;4.90;;;3.60;;
23088;SDS011;11713;48.506;8.966;2023-04-16T02:22:35;3.67;;;3.37;;
23088;SDS011;11713;48.506;8.966;2023-04-16T02:25:01;3.60;;;3.30;;
23088;SDS011;11713;48.506;8.966;2023-04-16T02:27:27;3.40;;;3.10;;
23088;SDS011;11713;48.506;8.966;2023-04-16T02:29:59;3.80;;;3.50;;
23088;SDS011;11713;48.506;8.966;2023-04-16T02:32:26;5.00;;;3.37;;
23088;SDS011;11713;48.506;8.966;2023-04-16T02:34:52;3.67;;;3.37;;
23088;SDS011;11713;48.506;8.966;2023-04-16T02:37:19;3.47;;;3.17;;
23088;SDS011;11713;48.506;8.966;2023-04-16T02:39:44;5.27;;;3.40;;
23088;SDS011;11713;48.506;8.966;2023-04-16T02:42:12;3.60;;;3.00;;
23088;SDS011;11713;48.506;8.966;2023-04-16T02:44:38;3.50;;;3.20;;
23088;SDS011;11713;48.506;8.966;2023-04-16T02:47:04;3.80;;;3.23;;
23088;SDS011;11713;48.506;8.966;2023-04-16T02:49:30;4.10;;;3.30;;
23088;SDS011;11713;48.506;8.966;2023-04-16T02:51:56;3.70;;;3.10;;
23088;SDS011;11713;48.506;8.966;2023-04-16T02:54:22;3.57;;;3.03;;
23088;SDS011;11713;48.506;8.966;2023-04-16T02:56:47;3.00;;;2.70;;
23088;SDS011;11713;48.506;8.966;2023-04-16T02:59:13;3.43;;;2.47;;
23088;SDS011;11713;48.506;8.966;2023-04-16T03:01:39;2.73;;;2.53;;
23088;SDS011;11713;48.506;8.966;2023-04-16T03:04:05;3.20;;;2.67;;
23088;SDS011;11713;48.506;8.966;2023-04-16T03:06:31;2.70;;;2.40;;
23088;SDS011;11713;48.506;8.966;2023-04-16T03:08:57;2.30;;;2.10;;
23088;SDS011;11713;48.506;8.966;2023-04-16T03:11:22;2.40;;;2.20;;
23088;SDS011;11713;48.506;8.966;2023-04-16T03:13:48;2.80;;;2.50;;
23088;SDS011;11713;48.506;8.966;2023-04-16T03:16:14;2.97;;;2.60;;
23088;SDS011;11713;48.506;8.966;2023-04-16T03:18:40;2.47;;;2.27;;
23088;SDS011;11713;48.506;8.966;2023-04-16T03:21:06;3.17;;;2.20;;
23088;SDS011;11713;48.506;8.966;2023-04-16T03:23:31;2.07;;;1.87;;
23088;SDS011;11713;48.506;8.966;2023-04-16T03:25:57;2.03;;;1.90;;
23088;SDS011;11713;48.506;8.966;2023-04-16T03:28:23;2.20;;;2.00;;
23088;SDS011;11713;48.506;8.966;2023-04-16T03:30:50;1.90;;;1.70;;
23088;SDS011;11713;48.506;8.966;2023-04-16T03:33:17;1.97;;;1.80;;
23088;SDS011;11713;48.506;8.966;2023-04-16T03:35:43;1.77;;;1.67;;
23088;SDS011;11713;48.506;8.966;2023-04-16T03:38:11;1.93;;;1.83;;
23088;SDS011;11713;48.506;8.966;2023-04-16T03:40:37;1.60;;;1.50;;
23088;SDS011;11713;48.506;8.966;2023-04-16T03:43:03;1.90;;;1.80;;
23088;SDS011;11713;48.506;8.966;2023-04-16T03:45:29;1.87;;;1.77;;
23088;SDS011;11713;48.506;8.966;2023-04-16T03:47:55;2.00;;;1.80;;
23088;SDS011;11713;48.506;8.966;2023-04-16T03:50:24;2.47;;;1.70;;
23088;SDS011;11713;48.506;8.966;2023-04-16T03:52:50;2.10;;;1.80;;
23088;SDS011;11713;48.506;8.966;2023-04-16T03:55:17;2.63;;;2.10;;
23088;SDS011;11713;48.506;8.966;2023-04-16T03:57:44;2.63;;;2.30;;
23088;SDS011;11713;48.506;8.966;2023-04-16T04:00:12;3.60;;;2.90;;
23088;SDS011;11713;48.506;8.966;2023-04-16T04:02:52;4.60;;;3.87;;
23088;SDS011;11713;48.506;8.966;2023-04-16T04:05:18;4.33;;;3.93;;
23088;SDS011;11713;48.506;8.966;2023-04-16T04:07:45;5.77;;;4.40;;
23088;SDS011;11713;48.506;8.966;2023-04-16T04:10:12;5.70;;;4.63;;
23088;SDS011;11713;48.506;8.966;2023-04-16T04:12:40;6.07;;;4.90;;
23088;SDS011;11713;48.506;8.966;2023-04-16T04:15:06;6.80;;;5.07;;
23088;SDS011;11713;48.506;8.966;2023-04-16T04:17:32;6.20;;;5.23;;
23088;SDS011;11713;48.506;8.966;2023-04-16T04:19:59;6.53;;;5.50;;
23088;SDS011;11713;48.506;8.966;2023-04-16T04:22:25;6.40;;;5.47;;
23088;SDS011;11713;48.506;8.966;2023-04-16T04:24:51;12.73;;;8.27;;
23088;SDS011;11713;48.506;8.966;2023-04-16T04:27:17;46.37;;;26.33;;
23088;SDS011;11713;48.506;8.966;2023-04-16T04:29:43;66.90;;;43.97;;
23088;SDS011;11713;48.506;8.966;2023-04-16T04:32:09;37.27;;;21.40;;
23088;SDS011;11713;48.506;8.966;2023-04-16T04:34:35;31.73;;;19.53;;
23088;SDS011;11713;48.506;8.966;2023-04-16T04:37:01;24.07;;;13.40;;
23088;SDS011;11713;48.506;8.966;2023-04-16T04:39:27;16.43;;;10.73;;
23088;SDS011;11713;48.506;8.966;2023-04-16T04:41:53;16.23;;;11.63;;
23088;SDS011;11713;48.506;8.966;2023-04-16T04:44:19;8.37;;;6.50;;
23088;SDS011;11713;48.506;8.966;2023-04-16T04:46:45;7.03;;;5.80;;
23088;SDS011;11713;48.506;8.966;2023-04-16T04:49:11;6.80;;;5.63;;
23088;SDS011;11713;48.506;8.966;2023-04-16T04:51:36;7.43;;;5.67;;
23088;SDS011;11713;48.506;8.966;2023-04-16T04:54:03;7.40;;;5.40;;
23088;SDS011;11713;48.506;8.966;2023-04-16T04:56:28;6.83;;;5.27;;
23088;SDS011;11713;48.506;8.966;2023-04-16T04:58:54;6.83;;;5.70;;
23088;SDS011;11713;48.506;8.966;2023-04-16T05:01:21;6.40;;;5.37;;
23088;SDS011;11713;48.506;8.966;2023-04-16T05:03:46;5.57;;;4.77;;
23088;SDS011;11713;48.506;8.966;2023-04-16T05:06:12;6.20;;;5.10;;
23088;SDS011;11713;48.506;8.966;2023-04-16T05:08:38;6.37;;;5.43;;
23088;SDS011;11713;48.506;8.966;2023-04-16T05:11:04;6.07;;;5.37;;
23088;SDS011;11713;48.506;8.966;2023-04-16T05:13:30;5.87;;;5.23;;
23088;SDS011;11713;48.506;8.966;2023-04-16T05:15:56;5.00;;;4.50;;
23088;SDS011;11713;48.506;8.966;2023-04-16T05:18:22;5.70;;;5.07;;
23088;SDS011;11713;48.506;8.966;2023-04-16T05:20:48;6.40;;;5.60;;
23088;SDS011;11713;48.506;8.966;2023-04-16T05:23:14;5.67;;;4.93;;
23088;SDS011;11713;48.506;8.966;2023-04-16T05:25:39;5.33;;;4.40;;
23088;SDS011;11713;48.506;8.966;2023-04-16T05:28:05;6.17;;;5.10;;
23088;SDS011;11713;48.506;8.966;2023-04-16T05:30:31;6.00;;;5.03;;
23088;SDS011;11713;48.506;8.966;2023-04-16T05:32:57;7.87;;;4.90;;
23088;SDS011;11713;48.506;8.966;2023-04-16T05:38:04;4.67;;;4.23;;
23088;SDS011;11713;48.506;8.966;2023-04-16T05:40:30;5.13;;;4.63;;
23088;SDS011;11713;48.506;8.966;2023-04-16T05:42:56;10.13;;;5.47;;
23088;SDS011;11713;48.506;8.966;2023-04-16T05:45:22;8.40;;;5.53;;
23088;SDS011;11713;48.506;8.966;2023-04-16T05:47:48;5.80;;;4.60;;
23088;SDS011;11713;48.506;8.966;2023-04-16T05:50:14;4.60;;;4.20;;
23088;SDS011;11713;48.506;8.966;2023-04-16T05:52:40;4.60;;;4.00;;
23088;SDS011;11713;48.506;8.966;2023-04-16T05:55:05;5.47;;;4.60;;
23088;SDS011;11713;48.506;8.966;2023-04-16T05:57:32;4.87;;;4.37;;
23088;SDS011;11713;48.506;8.966;2023-04-16T05:59:57;6.27;;;5.43;;
23088;SDS011;11713;48.506;8.966;2023-04-16T06:02:23;7.73;;;5.80;;
23088;SDS011;11713;48.506;8.966;2023-04-16T06:04:49;8.70;;;6.50;;
23088;SDS011;11713;48.506;8.966;2023-04-16T06:07:15;9.03;;;6.70;;
23088;SDS011;11713;48.506;8.966;2023-04-16T06:09:41;9.13;;;7.07;;
23088;SDS011;11713;48.506;8.966;2023-04-16T06:12:06;12.33;;;6.67;;
23088;SDS011;11713;48.506;8.966;2023-04-16T06:14:32;8.23;;;6.80;;
23088;SDS011;11713;48.506;8.966;2023-04-16T06:16:58;8.97;;;7.37;;
23088;SDS011;11713;48.506;8.966;2023-04-16T06:19:24;9.50;;;7.60;;
23088;SDS011;11713;48.506;8.966;2023-04-16T06:21:49;10.50;;;7.43;;
23088;SDS011;11713;48.506;8.966;2023-04-16T06:24:15;10.23;;;7.63;;
23088;SDS011;11713;48.506;8.966;2023-04-16T06:26:42;10.60;;;8.30;;
23088;SDS011;11713;48.506;8.966;2023-04-16T06:29:08;11.90;;;9.20;;
23088;SDS011;11713;48.506;8.966;2023-04-16T06:31:35;13.97;;;8.63;;
23088;SDS011;11713;48.506;8.966;2023-04-16T06:34:01;14.13;;;8.87;;
23088;SDS011;11713;48.506;8.966;2023-04-16T06:36:27;12.17;;;8.53;;
23088;SDS011;11713;48.506;8.966;2023-04-16T06:38:53;13.27;;;9.27;;
23088;SDS011;11713;48.506;8.966;2023-04-16T06:41:19;13.97;;;10.13;;
23088;SDS011;11713;48.506;8.966;2023-04-16T06:43:46;14.90;;;9.27;;
23088;SDS011;11713;48.506;8.966;2023-04-16T06:46:12;13.20;;;9.53;;
23088;SDS011;11713;48.506;8.966;2023-04-16T06:48:38;17.20;;;10.60;;
23088;SDS011;11713;48.506;8.966;2023-04-16T06:51:04;16.27;;;10.77;;
23088;SDS011;11713;48.506;8.966;2023-04-16T06:53:30;16.97;;;10.90;;
23088;SDS011;11713;48.506;8.966;2023-04-16T06:55:56;15.43;;;11.10;;
23088;SDS011;11713;48.506;8.966;2023-04-16T06:58:21;16.67;;;11.80;;
23088;SDS011;11713;48.506;8.966;2023-04-16T07:00:47;16.40;;;12.00;;
23088;SDS011;11713;48.506;8.966;2023-04-16T07:03:13;17.23;;;11.80;;
23088;SDS011;11713;48.506;8.966;2023-04-16T07:05:39;17.67;;;12.23;;
23088;SDS011;11713;48.506;8.966;2023-04-16T07:08:04;18.87;;;12.73;;
23088;SDS011;11713;48.506;8.966;2023-04-16T07:10:30;19.70;;;12.73;;
23088;SDS011;11713;48.506;8.966;2023-04-16T07:12:56;17.97;;;12.80;;
23088;SDS011;11713;48.506;8.966;2023-04-16T07:15:22;23.20;;;13.43;;
23088;SDS011;11713;48.506;8.966;2023-04-16T07:17:48;22.13;;;14.20;;
23088;SDS011;11713;48.506;8.966;2023-04-16T07:20:13;20.67;;;13.77;;
23088;SDS011;11713;48.506;8.966;2023-04-16T07:22:40;20.87;;;14.13;;
23088;SDS011;11713;48.506;8.966;2023-04-16T07:25:05;22.63;;;14.90;;
23088;SDS011;11713;48.506;8.966;2023-04-16T07:27:32;24.23;;;15.83;;
23088;SDS011;11713;48.506;8.966;2023-04-16T07:29:57;22.30;;;14.90;;
23088;SDS011;11713;48.506;8.966;2023-04-16T07:32:23;25.53;;;16.63;;
23088;SDS011;11713;48.506;8.966;2023-04-16T07:34:50;22.17;;;14.77;;
23088;SDS011;11713;48.506;8.966;2023-04-16T07:37:16;24.70;;;15.57;;
23088;SDS011;11713;48.506;8.966;2023-04-16T07:39:41;24.50;;;15.73;;
23088;SDS011;11713;48.506;8.966;2023-04-16T07:42:07;22.93;;;15.43;;
23088;SDS011;11713;48.506;8.966;2023-04-16T07:44:33;24.80;;;15.73;;
23088;SDS011;11713;48.506;8.966;2023-04-16T07:46:59;22.00;;;16.00;;
23088;SDS011;11713;48.506;8.966;2023-04-16T07:49:24;27.20;;;17.47;;
23088;SDS011;11713;48.506;8.966;2023-04-16T07:51:50;25.17;;;17.13;;
23088;SDS011;11713;48.506;8.966;2023-04-16T07:54:16;23.63;;;15.97;;
23088;SDS011;11713;48.506;8.966;2023-04-16T07:56:42;26.53;;;16.37;;
23088;SDS011;11713;48.506;8.966;2023-04-16T07:59:07;23.97;;;15.73;;
23088;SDS011;11713;48.506;8.966;2023-04-16T08:01:33;23.00;;;15.47;;
23088;SDS011;11713;48.506;8.966;2023-04-16T08:03:59;21.67;;;15.50;;
23088;SDS011;11713;48.506;8.966;2023-04-16T08:06:25;23.40;;;15.60;;
23088;SDS011;11713;48.506;8.966;2023-04-16T08:08:50;22.43;;;15.03;;
23088;SDS011;11713;48.506;8.966;2023-04-16T08:11:16;22.37;;;14.73;;
23088;SDS011;11713;48.506;8.966;2023-04-16T08:13:42;23.50;;;15.70;;
23088;SDS011;11713;48.506;8.966;2023-04-16T08:16:08;22.87;;;14.73;;
23088;SDS011;11713;48.506;8.966;2023-04-16T08:18:34;23.77;;;15.60;;
23088;SDS011;11713;48.506;8.966;2023-04-16T08:21:00;20.63;;;14.87;;
23088;SDS011;11713;48.506;8.966;2023-04-16T08:23:25;21.63;;;14.43;;
23088;SDS011;11713;48.506;8.966;2023-04-16T08:25:51;23.23;;;14.47;;
23088;SDS011;11713;48.506;8.966;2023-04-16T08:28:17;20.93;;;14.70;;
23088;SDS011;11713;48.506;8.966;2023-04-16T08:30:43;19.90;;;13.83;;
23088;SDS011;11713;48.506;8.966;2023-04-16T08:33:10;19.00;;;14.57;;
23088;SDS011;11713;48.506;8.966;2023-04-16T08:35:36;19.13;;;14.13;;
23088;SDS011;11713;48.506;8.966;2023-04-16T08:38:02;19.53;;;13.53;;
23088;SDS011;11713;48.506;8.966;2023-04-16T08:40:28;18.93;;;14.03;;
23088;SDS011;11713;48.506;8.966;2023-04-16T08:42:57;21.77;;;14.20;;
23088;SDS011;11713;48.506;8.966;2023-04-16T08:45:25;21.23;;;14.17;;
23088;SDS011;11713;48.506;8.966;2023-04-16T08:47:51;20.33;;;14.37;;
23088;SDS011;11713;48.506;8.966;2023-04-16T08:50:24;20.47;;;14.40;;
23088;SDS011;11713;48.506;8.966;2023-04-16T08:52:51;18.67;;;13.50;;
23088;SDS011;11713;48.506;8.966;2023-04-16T08:55:24;18.87;;;13.33;;
23088;SDS011;11713;48.506;8.966;2023-04-16T08:57:56;18.83;;;13.57;;
23088;SDS011;11713;48.506;8.966;2023-04-16T09:00:22;19.83;;;12.50;;
23088;SDS011;11713;48.506;8.966;2023-04-16T09:02:49;18.60;;;13.20;;
23088;SDS011;11713;48.506;8.966;2023-04-16T09:05:15;20.87;;;13.70;;
23088;SDS011;11713;48.506;8.966;2023-04-16T09:07:45;17.70;;;12.77;;
23088;SDS011;11713;48.506;8.966;2023-04-16T09:10:15;18.63;;;12.53;;
23088;SDS011;11713;48.506;8.966;2023-04-16T09:12:42;19.83;;;13.50;;
23088;SDS011;11713;48.506;8.966;2023-04-16T09:15:08;18.27;;;12.63;;
23088;SDS011;11713;48.506;8.966;2023-04-16T09:17:35;21.07;;;13.77;;
23088;SDS011;11713;48.506;8.966;2023-04-16T09:20:02;18.77;;;12.70;;
23088;SDS011;11713;48.506;8.966;2023-04-16T09:22:30;16.33;;;12.47;;
23088;SDS011;11713;48.506;8.966;2023-04-16T09:24:56;17.40;;;12.33;;
23088;SDS011;11713;48.506;8.966;2023-04-16T09:27:22;16.90;;;12.43;;
23088;SDS011;11713;48.506;8.966;2023-04-16T09:29:49;16.73;;;12.00;;
23088;SDS011;11713;48.506;8.966;2023-04-16T09:32:15;17.03;;;12.77;;
23088;SDS011;11713;48.506;8.966;2023-04-16T09:34:54;18.27;;;12.23;;
23088;SDS011;11713;48.506;8.966;2023-04-16T09:37:28;16.97;;;11.63;;
23088;SDS011;11713;48.506;8.966;2023-04-16T09:39:58;16.83;;;11.67;;
23088;SDS011;11713;48.506;8.966;2023-04-16T09:42:26;15.37;;;12.00;;
23088;SDS011;11713;48.506;8.966;2023-04-16T09:44:54;18.27;;;12.67;;
23088;SDS011;11713;48.506;8.966;2023-04-16T09:47:20;16.27;;;11.40;;
23088;SDS011;11713;48.506;8.966;2023-04-16T09:49:46;18.83;;;12.57;;
23088;SDS011;11713;48.506;8.966;2023-04-16T09:52:13;17.13;;;12.07;;
23088;SDS011;11713;48.506;8.966;2023-04-16T09:54:46;17.53;;;12.43;;
23088;SDS011;11713;48.506;8.966;2023-04-16T09:57:13;19.43;;;12.37;;
23088;SDS011;11713;48.506;8.966;2023-04-16T09:59:42;16.93;;;12.37;;
23088;SDS011;11713;48.506;8.966;2023-04-16T10:02:08;16.20;;;12.00;;
23088;SDS011;11713;48.506;8.966;2023-04-16T10:04:47;16.90;;;11.93;;
23088;SDS011;11713;48.506;8.966;2023-04-16T10:07:17;15.90;;;11.80;;
23088;SDS011;11713;48.506;8.966;2023-04-16T10:09:43;17.30;;;12.10;;
23088;SDS011;11713;48.506;8.966;2023-04-16T10:12:10;16.83;;;11.10;;
23088;SDS011;11713;48.506;8.966;2023-04-16T10:14:39;17.47;;;11.97;;
23088;SDS011;11713;48.506;8.966;2023-04-16T10:17:06;17.40;;;12.33;;
23088;SDS011;11713;48.506;8.966;2023-04-16T10:19:36;17.53;;;12.10;;
23088;SDS011;11713;48.506;8.966;2023-04-16T10:22:02;17.07;;;12.70;;
23088;SDS011;11713;48.506;8.966;2023-04-16T10:24:29;19.23;;;12.60;;
23088;SDS011;11713;48.506;8.966;2023-04-16T10:26:56;19.10;;;13.13;;
23088;SDS011;11713;48.506;8.966;2023-04-16T10:29:22;18.37;;;13.07;;
23088;SDS011;11713;48.506;8.966;2023-04-16T10:31:49;17.77;;;12.67;;
23088;SDS011;11713;48.506;8.966;2023-04-16T10:34:16;19.30;;;13.67;;
23088;SDS011;11713;48.506;8.966;2023-04-16T10:36:45;18.70;;;12.87;;
23088;SDS011;11713;48.506;8.966;2023-04-16T10:39:13;18.93;;;13.07;;
23088;SDS011;11713;48.506;8.966;2023-04-16T10:41:43;16.47;;;11.90;;
23088;SDS011;11713;48.506;8.966;2023-04-16T10:44:09;18.17;;;12.57;;
23088;SDS011;11713;48.506;8.966;2023-04-16T10:46:39;17.23;;;12.80;;
23088;SDS011;11713;48.506;8.966;2023-04-16T10:49:16;18.23;;;12.43;;
23088;SDS011;11713;48.506;8.966;2023-04-16T10:51:59;18.77;;;13.07;;
23088;SDS011;11713;48.506;8.966;2023-04-16T10:54:28;18.87;;;13.10;;
23088;SDS011;11713;48.506;8.966;2023-04-16T10:56:55;18.60;;;14.20;;
23088;SDS011;11713;48.506;8.966;2023-04-16T10:59:23;18.73;;;13.03;;
23088;SDS011;11713;48.506;8.966;2023-04-16T11:01:51;17.73;;;12.30;;
23088;SDS011;11713;48.506;8.966;2023-04-16T11:09:45;19.17;;;14.03;;
23088;SDS011;11713;48.506;8.966;2023-04-16T11:12:15;19.73;;;13.40;;
23088;SDS011;11713;48.506;8.966;2023-04-16T11:14:46;17.60;;;12.53;;
23088;SDS011;11713;48.506;8.966;2023-04-16T11:17:14;17.63;;;12.33;;
23088;SDS011;11713;48.506;8.966;2023-04-16T11:19:41;20.87;;;14.33;;
23088;SDS011;11713;48.506;8.966;2023-04-16T11:22:07;21.40;;;14.43;;
23088;SDS011;11713;48.506;8.966;2023-04-16T11:24:34;23.57;;;15.23;;
23088;SDS011;11713;48.506;8.966;2023-04-16T11:27:00;19.60;;;13.80;;
23088;SDS011;11713;48.506;8.966;2023-04-16T11:29:27;18.20;;;12.83;;
23088;SDS011;11713;48.506;8.966;2023-04-16T11:31:53;19.67;;;14.10;;
23088;SDS011;11713;48.506;8.966;2023-04-16T11:34:19;18.87;;;13.20;;
23088;SDS011;11713;48.506;8.966;2023-04-16T11:36:46;18.17;;;12.40;;
23088;SDS011;11713;48.506;8.966;2023-04-16T11:39:13;20.77;;;13.97;;
23088;SDS011;11713;48.506;8.966;2023-04-16T11:41:42;17.53;;;12.67;;
23088;SDS011;11713;48.506;8.966;2023-04-16T11:44:16;18.27;;;12.47;;
23088;SDS011;11713;48.506;8.966;2023-04-16T11:46:42;17.47;;;12.60;;
23088;SDS011;11713;48.506;8.966;2023-04-16T11:49:08;17.90;;;12.03;;
23088;SDS011;11713;48.506;8.966;2023-04-16T11:51:40;18.10;;;12.03;;
23088;SDS011;11713;48.506;8.966;2023-04-16T11:54:07;16.37;;;11.63;;
23088;SDS011;11713;48.506;8.966;2023-04-16T11:56:34;16.83;;;11.20;;
23088;SDS011;11713;48.506;8.966;2023-04-16T11:59:11;16.50;;;11.90;;
23088;SDS011;11713;48.506;8.966;2023-04-16T12:01:39;15.23;;;11.33;;
23088;SDS011;11713;48.506;8.966;2023-04-16T12:04:06;15.47;;;11.27;;
23088;SDS011;11713;48.506;8.966;2023-04-16T12:06:32;15.20;;;11.43;;
23088;SDS011;11713;48.506;8.966;2023-04-16T12:08:59;15.93;;;11.17;;
23088;SDS011;11713;48.506;8.966;2023-04-16T12:11:45;14.80;;;11.13;;
23088;SDS011;11713;48.506;8.966;2023-04-16T12:14:11;14.17;;;10.50;;
23088;SDS011;11713;48.506;8.966;2023-04-16T12:16:37;17.63;;;12.00;;
23088;SDS011;11713;48.506;8.966;2023-04-16T12:19:03;21.10;;;12.73;;
23088;SDS011;11713;48.506;8.966;2023-04-16T12:24:09;17.13;;;12.23;;
23088;SDS011;11713;48.506;8.966;2023-04-16T12:26:40;13.77;;;10.30;;
23088;SDS011;11713;48.506;8.966;2023-04-16T12:31:42;13.93;;;9.37;;
23088;SDS011;11713;48.506;8.966;2023-04-16T12:34:08;13.57;;;9.73;;
23088;SDS011;11713;48.506;8.966;2023-04-16T12:36:34;18.23;;;10.90;;
23088;SDS011;11713;48.506;8.966;2023-04-16T12:39:00;23.93;;;12.97;;
23088;SDS011;11713;48.506;8.966;2023-04-16T12:41:27;18.73;;;11.37;;
23088;SDS011;11713;48.506;8.966;2023-04-16T12:44:02;13.23;;;9.80;;
23088;SDS011;11713;48.506;8.966;2023-04-16T12:46:29;16.80;;;10.77;;
23088;SDS011;11713;48.506;8.966;2023-04-16T12:48:54;11.37;;;9.03;;
23088;SDS011;11713;48.506;8.966;2023-04-16T12:51:21;14.17;;;9.43;;
23088;SDS011;11713;48.506;8.966;2023-04-16T12:53:48;12.80;;;9.70;;
23088;SDS011;11713;48.506;8.966;2023-04-16T12:56:14;16.40;;;10.30;;
23088;SDS011;11713;48.506;8.966;2023-04-16T12:58:40;14.30;;;9.90;;
23088;SDS011;11713;48.506;8.966;2023-04-16T13:01:06;12.47;;;9.03;;
23088;SDS011;11713;48.506;8.966;2023-04-16T13:03:32;12.60;;;8.93;;
23088;SDS011;11713;48.506;8.966;2023-04-16T13:06:00;18.23;;;10.73;;
23088;SDS011;11713;48.506;8.966;2023-04-16T13:08:26;10.60;;;8.87;;
23088;SDS011;11713;48.506;8.966;2023-04-16T13:10:52;11.33;;;9.60;;
23088;SDS011;11713;48.506;8.966;2023-04-16T13:13:18;14.30;;;9.53;;
23088;SDS011;11713;48.506;8.966;2023-04-16T13:15:44;11.63;;;9.03;;
23088;SDS011;11713;48.506;8.966;2023-04-16T13:18:10;12.43;;;8.87;;
23088;SDS011;11713;48.506;8.966;2023-04-16T13:20:35;12.60;;;9.57;;
23088;SDS011;11713;48.506;8.966;2023-04-16T13:23:01;11.87;;;9.23;;
23088;SDS011;11713;48.506;8.966;2023-04-16T13:25:29;8.47;;;7.00;;
23088;SDS011;11713;48.506;8.966;2023-04-16T13:27:55;11.17;;;8.17;;
23088;SDS011;11713;48.506;8.966;2023-04-16T13:30:21;10.17;;;8.00;;
23088;SDS011;11713;48.506;8.966;2023-04-16T13:32:47;13.73;;;8.93;;
23088;SDS011;11713;48.506;8.966;2023-04-16T13:35:13;11.20;;;8.10;;
23088;SDS011;11713;48.506;8.966;2023-04-16T13:37:38;11.27;;;8.87;;
23088;SDS011;11713;48.506;8.966;2023-04-16T13:40:04;12.43;;;9.37;;
23088;SDS011;11713;48.506;8.966;2023-04-16T13:42:31;10.07;;;7.33;;
23088;SDS011;11713;48.506;8.966;2023-04-16T13:44:56;8.00;;;6.17;;
23088;SDS011;11713;48.506;8.966;2023-04-16T13:47:23;9.87;;;7.30;;
23088;SDS011;11713;48.506;8.966;2023-04-16T13:49:48;7.40;;;5.57;;
23088;SDS011;11713;48.506;8.966;2023-04-16T13:52:14;5.93;;;5.20;;
23088;SDS011;11713;48.506;8.966;2023-04-16T13:54:40;7.10;;;5.97;;
23088;SDS011;11713;48.506;8.966;2023-04-16T13:57:17;5.90;;;4.90;;
23088;SDS011;11713;48.506;8.966;2023-04-16T13:59:44;5.27;;;4.33;;
23088;SDS011;11713;48.506;8.966;2023-04-16T14:02:10;4.60;;;3.93;;
23088;SDS011;11713;48.506;8.966;2023-04-16T14:04:36;4.57;;;3.47;;
23088;SDS011;11713;48.506;8.966;2023-04-16T14:07:02;4.17;;;3.50;;
23088;SDS011;11713;48.506;8.966;2023-04-16T14:09:28;4.33;;;2.87;;
23088;SDS011;11713;48.506;8.966;2023-04-16T14:11:54;3.93;;;3.00;;
23088;SDS011;11713;48.506;8.966;2023-04-16T14:14:20;3.10;;;2.80;;
23088;SDS011;11713;48.506;8.966;2023-04-16T14:16:46;3.13;;;2.80;;
23088;SDS011;11713;48.506;8.966;2023-04-16T14:19:12;3.37;;;2.57;;
23088;SDS011;11713;48.506;8.966;2023-04-16T14:21:38;2.70;;;2.17;;
23088;SDS011;11713;48.506;8.966;2023-04-16T14:24:04;2.67;;;2.40;;
23088;SDS011;11713;48.506;8.966;2023-04-16T14:26:30;2.63;;;2.37;;
23088;SDS011;11713;48.506;8.966;2023-04-16T14:28:55;2.70;;;2.50;;
23088;SDS011;11713;48.506;8.966;2023-04-16T14:31:21;2.40;;;2.20;;
23088;SDS011;11713;48.506;8.966;2023-04-16T14:33:47;3.77;;;2.50;;
23088;SDS011;11713;48.506;8.966;2023-04-16T14:36:13;3.30;;;2.20;;
23088;SDS011;11713;48.506;8.966;2023-04-16T14:38:39;2.00;;;1.80;;
23088;SDS011;11713;48.506;8.966;2023-04-16T14:41:04;2.13;;;1.93;;
23088;SDS011;11713;48.506;8.966;2023-04-16T14:43:30;2.17;;;1.97;;
23088;SDS011;11713;48.506;8.966;2023-04-16T14:45:56;2.20;;;2.00;;